createdAt,value
2023-11-18T00:02:19.949Z,12.68
2023-11-18T00:04:48.035Z,13.07
2023-11-18T00:07:17.830Z,13.75
2023-11-18T00:09:46.922Z,13.27
2023-11-18T00:12:15.128Z,15.30
2023-11-18T00:14:43.701Z,14.55
2023-11-18T00:17:11.081Z,13.48
2023-11-18T00:19:38.070Z,13.00
2023-11-18T00:22:04.920Z,12.75
2023-11-18T00:24:35.158Z,13.05
2023-11-18T00:27:08.734Z,13.38
2023-11-18T00:29:36.087Z,12.80
2023-11-18T00:32:04.262Z,12.15
2023-11-18T00:34:31.335Z,11.35
2023-11-18T00:36:58.581Z,11.15
2023-11-18T00:39:26.307Z,12.45
2023-11-18T00:41:53.130Z,11.95
2023-11-18T00:44:20.324Z,11.30
2023-11-18T00:46:47.225Z,11.88
2023-11-18T00:49:14.252Z,10.98
2023-11-18T00:51:42.309Z,10.15
2023-11-18T00:54:09.197Z,12.15
2023-11-18T00:56:36.105Z,11.43
2023-11-18T00:59:03.046Z,10.10
2023-11-18T01:01:30.238Z,10.55
2023-11-18T01:04:00.364Z,9.50
2023-11-18T01:06:29.437Z,10.05
2023-11-18T01:08:56.376Z,10.70
2023-11-18T01:11:25.743Z,9.75
2023-11-18T01:13:53.867Z,10.50
2023-11-18T01:16:20.752Z,9.88
2023-11-18T01:18:47.986Z,8.82
2023-11-18T01:21:14.946Z,9.18
2023-11-18T01:23:43.770Z,9.13
2023-11-18T01:26:10.833Z,10.10
2023-11-18T01:28:38.730Z,8.80
2023-11-18T01:31:06.128Z,9.55
2023-11-18T01:33:33.688Z,8.95
2023-11-18T01:36:00.720Z,9.23
2023-11-18T01:38:27.594Z,9.25
2023-11-18T01:40:54.694Z,10.65
2023-11-18T01:43:23.325Z,10.27
2023-11-18T01:45:50.502Z,10.38
2023-11-18T01:48:18.345Z,11.13
2023-11-18T01:50:45.750Z,11.32
2023-11-18T01:53:15.480Z,9.55
2023-11-18T01:55:43.780Z,9.65
2023-11-18T01:58:11.981Z,10.73
2023-11-18T02:00:43.461Z,9.63
2023-11-18T02:03:10.547Z,10.43
2023-11-18T02:05:38.190Z,10.23
2023-11-18T02:08:08.146Z,10.27
2023-11-18T02:10:51.731Z,9.60
2023-11-18T02:13:31.399Z,10.70
2023-11-18T02:15:59.309Z,11.93
2023-11-18T02:18:28.118Z,12.15
2023-11-18T02:20:59.968Z,11.93
2023-11-18T02:23:30.899Z,10.85
2023-11-18T02:25:58.127Z,10.70
2023-11-18T02:28:25.222Z,11.95
2023-11-18T02:30:59.476Z,11.60
2023-11-18T02:33:41.485Z,11.95
2023-11-18T02:36:19.037Z,12.43
2023-11-18T02:38:51.210Z,11.50
2023-11-18T02:47:58.534Z,11.25
2023-11-18T02:50:26.427Z,11.93
2023-11-18T02:52:53.615Z,10.57
2023-11-18T02:55:22.314Z,12.30
2023-11-18T02:57:50.542Z,12.10
2023-11-18T03:00:24.074Z,11.23
2023-11-18T03:02:53.076Z,9.38
2023-11-18T03:05:21.631Z,12.38
2023-11-18T03:07:54.612Z,11.40
2023-11-18T03:10:22.932Z,13.50
2023-11-18T03:12:51.910Z,11.88
2023-11-18T03:15:19.211Z,11.60
2023-11-18T03:17:47.310Z,12.57
2023-11-18T03:20:17.729Z,13.65
2023-11-18T03:22:48.558Z,12.90
2023-11-18T03:25:16.166Z,15.20
2023-11-18T03:27:44.046Z,13.73
2023-11-18T03:30:11.563Z,13.63
2023-11-18T03:32:41.669Z,13.15
2023-11-18T03:35:12.297Z,13.57
2023-11-18T03:37:44.065Z,14.25
2023-11-18T03:42:41.294Z,12.73
2023-11-18T03:45:10.764Z,11.35
2023-11-18T03:47:38.007Z,12.88
2023-11-18T03:50:06.511Z,12.70
2023-11-18T03:52:33.596Z,13.68
2023-11-18T03:55:00.910Z,13.23
2023-11-18T03:57:27.819Z,13.13
2023-11-18T03:59:55.032Z,13.60
2023-11-18T04:22:49.045Z,15.25
2023-11-18T04:25:16.377Z,14.57
2023-11-18T04:27:46.217Z,14.57
2023-11-18T04:30:14.631Z,15.60
2023-11-18T04:32:43.841Z,13.02
2023-11-18T04:35:12.979Z,15.10
2023-11-18T04:37:44.456Z,15.25
2023-11-18T04:40:12.204Z,14.77
2023-11-18T04:42:40.623Z,14.90
2023-11-18T04:45:10.398Z,16.35
2023-11-18T04:47:39.423Z,14.52
2023-11-18T04:50:09.591Z,16.02
2023-11-18T04:52:37.543Z,15.45
2023-11-18T04:55:07.181Z,14.77
2023-11-18T04:57:34.933Z,14.65
2023-11-18T05:00:11.371Z,15.80
2023-11-18T05:02:43.837Z,14.30
2023-11-18T05:05:10.753Z,16.30
2023-11-18T05:07:39.423Z,14.02
2023-11-18T05:10:09.555Z,13.25
2023-11-18T05:12:38.816Z,13.65
2023-11-18T05:15:08.642Z,13.13
2023-11-18T05:17:38.819Z,13.85
2023-11-18T05:20:09.954Z,12.70
2023-11-18T05:22:40.051Z,13.02
2023-11-18T05:25:08.472Z,13.05
2023-11-18T05:27:35.301Z,13.82
2023-11-18T05:30:02.291Z,12.80
2023-11-18T05:32:31.125Z,12.10
2023-11-18T05:34:58.827Z,12.50
2023-11-18T05:37:26.228Z,12.40
2023-11-18T05:40:00.545Z,12.90
2023-11-18T05:42:29.405Z,12.43
2023-11-18T05:45:00.423Z,11.98
2023-11-18T05:47:27.568Z,12.48
2023-11-18T05:49:55.181Z,12.50
2023-11-18T05:52:24.407Z,13.73
2023-11-18T05:54:51.246Z,13.15
2023-11-18T05:57:19.138Z,13.48
2023-11-18T05:59:49.947Z,12.63
2023-11-18T06:02:20.310Z,13.82
2023-11-18T06:04:50.411Z,11.75
2023-11-18T06:07:17.247Z,11.88
2023-11-18T06:09:48.915Z,11.30
2023-11-18T06:12:18.801Z,12.65
2023-11-18T06:14:48.104Z,11.18
2023-11-18T06:17:16.082Z,12.13
2023-11-18T06:19:43.231Z,12.80
2023-11-18T06:22:11.586Z,12.38
2023-11-18T06:24:42.816Z,13.20
2023-11-18T06:27:11.165Z,12.35
2023-11-18T06:29:38.057Z,12.45
2023-11-18T06:32:07.105Z,12.40
2023-11-18T06:34:34.152Z,13.25
2023-11-18T06:37:02.952Z,12.18
2023-11-18T06:39:30.928Z,12.35
2023-11-18T06:41:59.300Z,12.68
2023-11-18T06:44:26.233Z,12.63
2023-11-18T06:46:53.296Z,11.57
2023-11-18T06:49:20.698Z,12.50
2023-11-18T06:51:47.498Z,12.18
2023-11-18T06:54:16.854Z,12.45
2023-11-18T06:56:45.085Z,11.68
2023-11-18T06:59:15.896Z,11.32
2023-11-18T07:01:45.061Z,10.90
2023-11-18T07:04:15.210Z,13.00
2023-11-18T07:06:42.413Z,11.75
2023-11-18T07:09:15.494Z,11.05
2023-11-18T07:11:42.747Z,11.93
2023-11-18T07:14:12.471Z,12.10
2023-11-18T07:16:43.081Z,11.73
2023-11-18T07:19:16.117Z,11.95
2023-11-18T07:21:42.940Z,11.70
2023-11-18T07:24:10.713Z,11.60
2023-11-18T07:26:37.519Z,12.18
2023-11-18T07:29:04.477Z,11.38
2023-11-18T07:31:33.435Z,10.70
2023-11-18T07:34:00.614Z,11.73
2023-11-18T07:36:27.373Z,10.65
2023-11-18T07:38:56.246Z,11.27
2023-11-18T07:41:25.847Z,11.27
2023-11-18T07:43:57.061Z,10.70
2023-11-18T07:46:24.179Z,12.50
2023-11-18T07:48:57.902Z,10.55
2023-11-18T07:51:25.707Z,11.30
2023-11-18T07:53:54.115Z,9.88
2023-11-18T07:56:23.546Z,9.45
2023-11-18T07:58:53.007Z,9.82
2023-11-18T08:01:22.604Z,9.50
2023-11-18T08:03:52.023Z,9.65
2023-11-18T08:06:18.863Z,10.38
2023-11-18T08:08:45.716Z,10.20
2023-11-18T08:11:15.707Z,11.00
2023-11-18T08:13:42.879Z,11.45
2023-11-18T08:16:10.120Z,11.60
2023-11-18T08:18:37.723Z,10.55
2023-11-18T08:21:09.754Z,9.25
2023-11-18T08:23:36.987Z,9.25
2023-11-18T08:26:04.799Z,9.65
2023-11-18T08:28:31.665Z,8.90
2023-11-18T08:30:58.505Z,8.57
2023-11-18T08:33:27.016Z,9.13
2023-11-18T08:35:53.927Z,8.45
2023-11-18T08:38:20.936Z,9.68
2023-11-18T08:40:49.755Z,10.10
2023-11-18T08:43:17.515Z,9.43
2023-11-18T08:45:44.671Z,9.27
2023-11-18T08:48:12.223Z,8.60
2023-11-18T08:50:44.420Z,9.50
2023-11-18T08:53:13.031Z,9.20
2023-11-18T08:55:41.221Z,8.57
2023-11-18T08:58:20.727Z,8.45
2023-11-18T09:01:05.192Z,8.18
2023-11-18T09:03:44.254Z,9.02
2023-11-18T09:06:41.305Z,8.35
2023-11-18T09:09:12.219Z,8.82
2023-11-18T09:11:42.527Z,8.45
2023-11-18T09:14:09.911Z,8.68
2023-11-18T09:16:40.614Z,8.57
2023-11-18T09:19:07.518Z,8.18
2023-11-18T09:21:39.392Z,7.15
2023-11-18T09:24:11.184Z,6.85
2023-11-18T09:26:37.939Z,7.57
2023-11-18T09:29:04.957Z,7.32
2023-11-18T09:31:34.436Z,7.82
2023-11-18T09:34:02.124Z,6.78
2023-11-18T09:36:29.837Z,6.82
2023-11-18T09:38:57.734Z,7.07
2023-11-18T09:41:27.925Z,6.22
2023-11-18T09:43:57.646Z,6.50
2023-11-18T09:46:26.151Z,6.53
2023-11-18T09:49:18.569Z,7.10
2023-11-18T09:51:49.680Z,6.63
2023-11-18T09:54:30.275Z,6.33
2023-11-18T09:57:41.619Z,6.13
2023-11-18T10:00:22.124Z,6.15
2023-11-18T10:02:52.403Z,6.10
2023-11-18T10:05:22.151Z,6.15
2023-11-18T10:07:52.766Z,6.15
2023-11-18T10:10:25.703Z,6.03
2023-11-18T10:12:53.646Z,6.20
2023-11-18T10:15:26.260Z,5.70
2023-11-18T10:18:09.697Z,6.10
2023-11-18T10:20:48.317Z,6.22
2023-11-18T10:23:22.852Z,6.40
2023-11-18T10:25:55.299Z,5.70
2023-11-18T10:28:38.920Z,6.40
2023-11-18T10:31:10.722Z,6.28
2023-11-18T10:33:43.313Z,6.93
2023-11-18T10:36:23.546Z,5.93
2023-11-18T10:38:53.212Z,6.03
2023-11-18T10:41:20.806Z,5.88
2023-11-18T10:43:51.613Z,5.22
2023-11-18T10:46:19.673Z,5.97
2023-11-18T10:48:51.937Z,5.50
2023-11-18T10:51:21.400Z,4.40
2023-11-18T10:54:00.124Z,4.80
2023-11-18T10:56:30.093Z,4.28
2023-11-18T10:58:59.851Z,4.20
2023-11-18T11:01:46.209Z,3.65
2023-11-18T11:04:13.715Z,3.42
2023-11-18T11:06:53.538Z,3.65
2023-11-18T11:09:25.731Z,3.67
2023-11-18T11:12:08.413Z,3.40
2023-11-18T11:14:42.393Z,3.15
2023-11-18T11:17:27.020Z,3.10
2023-11-18T11:20:24.850Z,2.85
2023-11-18T11:23:23.573Z,3.25
2023-11-18T11:26:31.808Z,2.35
2023-11-18T11:29:31.082Z,2.92
2023-11-18T11:32:40.369Z,2.20
2023-11-18T11:35:31.113Z,2.20
2023-11-18T11:38:10.926Z,1.95
2023-11-18T11:40:39.080Z,2.40
2023-11-18T11:43:11.511Z,1.83
2023-11-18T11:45:44.362Z,1.40
2023-11-18T11:48:27.715Z,1.80
2023-11-18T11:51:21.511Z,1.35
2023-11-18T11:54:02.639Z,1.52
2023-11-18T11:56:51.142Z,1.60
2023-11-18T11:59:18.281Z,1.35
2023-11-18T12:01:53.515Z,1.55
2023-11-18T12:04:24.880Z,1.50
2023-11-18T12:07:05.567Z,1.30
2023-11-18T12:09:39.785Z,1.50
2023-11-18T12:12:15.762Z,1.10
2023-11-18T12:15:01.623Z,1.20
2023-11-18T12:17:33.427Z,1.33
2023-11-18T12:20:01.351Z,1.58
2023-11-18T12:22:31.330Z,1.30
2023-11-18T12:24:58.767Z,1.35
2023-11-18T12:27:47.737Z,1.50
2023-11-18T12:30:17.534Z,1.20
2023-11-18T12:33:12.603Z,1.38
2023-11-18T12:36:09.173Z,1.77
2023-11-18T12:39:36.761Z,1.75
2023-11-18T12:42:12.841Z,1.38
2023-11-18T12:45:18.283Z,1.40
2023-11-18T12:47:49.199Z,1.42
2023-11-18T12:50:25.563Z,1.92
2023-11-18T12:52:56.973Z,2.03
2023-11-18T12:55:24.213Z,1.90
2023-11-18T12:57:55.122Z,1.20
2023-11-18T13:00:28.895Z,1.67
2023-11-18T13:02:56.313Z,2.53
2023-11-18T13:05:23.472Z,1.95
2023-11-18T13:07:50.964Z,1.90
2023-11-18T13:10:18.405Z,1.73
2023-11-18T13:12:46.830Z,1.60
2023-11-18T13:15:13.850Z,1.75
2023-11-18T13:17:41.902Z,1.30
2023-11-18T13:20:16.253Z,2.00
2023-11-18T13:22:48.133Z,1.83
2023-11-18T13:25:15.973Z,1.90
2023-11-18T13:27:42.897Z,2.00
2023-11-18T13:30:14.732Z,1.80
2023-11-18T13:35:12.110Z,1.60
2023-11-18T13:37:38.925Z,1.70
2023-11-18T13:40:07.085Z,1.88
2023-11-18T13:42:34.661Z,1.60
2023-11-18T13:45:09.340Z,1.63
2023-11-18T13:47:37.865Z,1.92
2023-11-18T13:50:11.381Z,1.75
2023-11-18T13:52:39.927Z,1.50
2023-11-18T13:55:09.689Z,1.75
2023-11-18T13:57:36.896Z,1.67
2023-11-18T14:00:07.805Z,1.88
2023-11-18T14:02:37.028Z,2.50
2023-11-18T14:05:06.682Z,2.25
2023-11-18T14:07:40.669Z,2.35
2023-11-18T14:10:14.011Z,1.88
2023-11-18T14:12:41.177Z,1.70
2023-11-18T14:15:11.369Z,2.30
2023-11-18T14:17:38.394Z,2.10
2023-11-18T14:20:05.866Z,2.10
2023-11-18T14:22:32.700Z,2.00
2023-11-18T14:24:59.503Z,2.42
2023-11-18T14:27:26.919Z,2.10
2023-11-18T14:29:53.808Z,1.95
2023-11-18T14:32:20.733Z,2.15
2023-11-18T14:34:50.039Z,2.10
2023-11-18T14:37:16.887Z,1.98
2023-11-18T14:39:43.668Z,1.80
2023-11-18T14:42:10.550Z,1.50
2023-11-18T14:44:37.549Z,1.60
2023-11-18T14:47:06.885Z,1.77
2023-11-18T14:49:33.781Z,2.80
2023-11-18T14:52:00.613Z,2.40
2023-11-18T14:54:27.463Z,2.85
2023-11-18T14:56:54.356Z,2.40
2023-11-18T14:59:23.949Z,2.20
2023-11-18T15:01:50.891Z,1.90
2023-11-18T15:04:17.842Z,2.08
2023-11-18T15:06:44.748Z,1.98
2023-11-18T15:09:12.339Z,2.10
2023-11-18T15:11:39.382Z,2.10
2023-11-18T15:14:08.641Z,2.03
2023-11-18T15:16:36.137Z,2.05
2023-11-18T15:19:03.193Z,2.42
2023-11-18T15:21:31.003Z,1.95
2023-11-18T15:24:02.539Z,2.30
2023-11-18T15:26:33.953Z,1.77
2023-11-18T15:29:02.801Z,1.80
2023-11-18T15:31:30.994Z,2.17
2023-11-18T15:34:01.122Z,2.30
2023-11-18T15:36:28.138Z,2.17
2023-11-18T15:38:55.092Z,2.75
2023-11-18T15:41:23.189Z,1.95
2023-11-18T15:43:50.531Z,1.70
2023-11-18T15:46:17.861Z,1.58
2023-11-18T15:48:44.663Z,2.03
2023-11-18T15:51:14.334Z,1.80
2023-11-18T15:53:41.534Z,2.17
2023-11-18T15:56:10.017Z,2.17
2023-11-18T15:58:38.042Z,1.88
2023-11-18T16:01:05.370Z,1.98
2023-11-18T16:03:32.297Z,1.90
2023-11-18T16:05:59.211Z,1.98
2023-11-18T16:08:26.852Z,2.35
2023-11-18T16:10:55.117Z,1.88
2023-11-18T16:13:22.905Z,2.22
2023-11-18T16:15:49.745Z,1.83
2023-11-18T16:18:17.000Z,2.17
2023-11-18T16:20:43.922Z,2.35
2023-11-18T16:23:11.609Z,1.98
2023-11-18T16:25:39.014Z,1.85
2023-11-18T16:28:08.390Z,1.67
2023-11-18T16:30:35.219Z,2.10
2023-11-18T16:33:02.941Z,2.60
2023-11-18T16:35:30.977Z,2.20
2023-11-18T16:38:00.400Z,2.40
2023-11-18T16:40:27.319Z,2.20
2023-11-18T16:42:59.963Z,2.20
2023-11-18T16:45:27.837Z,2.28
2023-11-18T16:47:55.834Z,1.80
2023-11-18T16:50:25.794Z,2.15
2023-11-18T16:52:54.955Z,1.50
2023-11-18T16:55:22.918Z,1.73
2023-11-18T16:57:52.830Z,1.63
2023-11-18T17:00:25.740Z,1.83
2023-11-18T17:02:57.182Z,1.53
2023-11-18T17:05:29.278Z,1.40
2023-11-18T17:07:57.024Z,1.38
2023-11-18T17:10:24.552Z,1.67
2023-11-18T17:12:54.673Z,1.60
2023-11-18T17:15:21.681Z,1.50
2023-11-18T17:18:05.325Z,1.70
2023-11-18T17:20:33.181Z,1.80
2023-11-18T17:23:00.265Z,1.52
2023-11-18T17:25:27.380Z,1.92
2023-11-18T17:27:54.697Z,1.65
2023-11-18T17:30:22.367Z,1.65
2023-11-18T17:32:54.324Z,1.70
2023-11-18T17:35:22.242Z,1.40
2023-11-18T17:37:51.789Z,1.30
2023-11-18T17:40:22.235Z,1.08
2023-11-18T17:42:54.282Z,0.90
2023-11-18T17:45:21.950Z,0.90
2023-11-18T17:47:48.814Z,0.95
2023-11-18T17:50:18.277Z,0.90
2023-11-18T17:52:47.444Z,1.23
2023-11-18T17:55:14.760Z,0.70
2023-11-18T17:57:42.658Z,1.05
2023-11-18T18:00:14.022Z,0.77
2023-11-18T18:02:42.973Z,0.90
2023-11-18T18:05:13.375Z,0.70
2023-11-18T18:07:41.395Z,0.60
2023-11-18T18:10:10.867Z,1.02
2023-11-18T18:12:38.161Z,1.27
2023-11-18T18:15:11.654Z,2.53
2023-11-18T18:17:39.145Z,1.10
2023-11-18T18:20:09.848Z,0.90
2023-11-18T18:22:38.778Z,0.80
2023-11-18T18:25:06.299Z,1.15
2023-11-18T18:27:36.233Z,0.85
2023-11-18T18:30:04.352Z,0.80
2023-11-18T18:32:31.730Z,0.75
2023-11-18T18:34:58.884Z,0.82
2023-11-18T18:37:27.055Z,1.00
2023-11-18T18:39:55.205Z,0.80
2023-11-18T18:42:22.676Z,0.75
2023-11-18T18:44:49.638Z,0.85
2023-11-18T18:47:16.537Z,1.00
2023-11-18T18:49:43.592Z,1.00
2023-11-18T18:52:10.367Z,0.80
2023-11-18T18:54:37.187Z,1.30
2023-11-18T18:57:06.847Z,1.20
2023-11-18T18:59:33.788Z,0.90
2023-11-18T19:02:01.358Z,0.80
2023-11-18T19:04:28.257Z,0.70
2023-11-18T19:06:56.031Z,0.90
2023-11-18T19:09:22.964Z,0.90
2023-11-18T19:11:50.370Z,0.70
2023-11-18T19:14:17.504Z,0.90
2023-11-18T19:16:44.552Z,0.60
2023-11-18T19:19:11.385Z,0.70
2023-11-18T19:21:38.389Z,0.60
2023-11-18T19:24:08.233Z,0.73
2023-11-18T19:26:37.451Z,0.68
2023-11-18T19:29:04.741Z,0.90
2023-11-18T19:31:31.609Z,0.80
2023-11-18T19:33:59.995Z,0.98
2023-11-18T19:36:26.974Z,0.80
2023-11-18T19:38:53.994Z,0.80
2023-11-18T19:41:21.286Z,0.95
2023-11-18T19:43:49.865Z,0.80
2023-11-18T19:46:17.413Z,0.80
2023-11-18T19:48:44.311Z,0.98
2023-11-18T19:51:11.772Z,0.70
2023-11-18T19:53:38.832Z,0.80
2023-11-18T19:56:06.138Z,0.80
2023-11-18T19:58:32.960Z,0.70
2023-11-18T20:01:00.415Z,0.65
2023-11-18T20:03:27.569Z,0.85
2023-11-18T20:05:54.633Z,0.98
2023-11-18T20:08:21.520Z,0.82
2023-11-18T20:10:48.692Z,0.80
2023-11-18T20:13:16.548Z,1.00
2023-11-18T20:15:43.516Z,0.93
2023-11-18T20:18:11.300Z,1.00
2023-11-18T20:20:38.249Z,0.80
2023-11-18T20:23:05.887Z,0.70
2023-11-18T20:25:32.807Z,0.80
2023-11-18T20:27:59.577Z,1.00
2023-11-18T20:30:26.506Z,0.80
2023-11-18T20:32:53.630Z,0.80
2023-11-18T20:35:20.572Z,0.73
2023-11-18T20:37:48.867Z,1.05
2023-11-18T20:40:21.922Z,0.90
2023-11-18T20:42:50.369Z,0.80
2023-11-18T20:45:18.934Z,0.90
2023-11-18T20:47:47.575Z,1.00
2023-11-18T20:50:15.719Z,0.70
2023-11-18T20:52:43.611Z,0.80
2023-11-18T20:55:13.048Z,1.00
2023-11-18T20:57:40.101Z,0.80
2023-11-18T21:00:09.319Z,0.98
2023-11-18T21:02:36.655Z,1.00
2023-11-18T21:05:09.920Z,0.90
2023-11-18T21:07:37.003Z,0.88
2023-11-18T21:10:05.759Z,0.90
2023-11-18T21:12:34.881Z,0.88
2023-11-18T21:15:04.664Z,1.10
2023-11-18T21:17:32.545Z,0.90
2023-11-18T21:19:59.411Z,0.98
2023-11-18T21:22:27.543Z,1.20
2023-11-18T21:24:55.225Z,1.05
2023-11-18T21:27:21.994Z,1.38
2023-11-18T21:29:49.048Z,0.90
2023-11-18T21:32:15.853Z,1.08
2023-11-18T21:34:43.741Z,1.17
2023-11-18T21:37:11.386Z,1.15
2023-11-18T21:39:39.929Z,1.10
2023-11-18T21:42:08.631Z,1.40
2023-11-18T21:44:41.004Z,1.40
2023-11-18T21:47:11.234Z,1.40
2023-11-18T21:49:38.117Z,1.13
2023-11-18T21:52:05.396Z,1.30
2023-11-18T21:54:32.584Z,1.60
2023-11-18T21:57:00.197Z,1.30
2023-11-18T21:59:27.395Z,1.42
2023-11-18T22:01:55.950Z,1.75
2023-11-18T22:04:23.297Z,1.50
2023-11-18T22:06:53.392Z,1.52
2023-11-18T22:09:22.398Z,1.88
2023-11-18T22:11:50.478Z,2.05
2023-11-18T22:14:17.474Z,2.35
2023-11-18T22:16:44.338Z,2.10
2023-11-18T22:19:13.357Z,2.13
2023-11-18T22:21:40.335Z,2.60
2023-11-18T22:24:10.873Z,2.47
2023-11-18T22:26:38.857Z,2.08
2023-11-18T22:29:05.731Z,2.63
2023-11-18T22:31:32.679Z,2.35
2023-11-18T22:33:59.818Z,2.40
2023-11-18T22:36:26.590Z,2.60
2023-11-18T22:38:54.867Z,2.17
2023-11-18T22:41:21.727Z,2.30
2023-11-18T22:43:48.650Z,2.28
2023-11-18T22:46:15.630Z,2.30
2023-11-18T22:48:45.772Z,2.40
2023-11-18T22:51:12.836Z,2.25
2023-11-18T22:53:43.367Z,2.33
2023-11-18T22:56:13.363Z,2.47
2023-11-18T22:58:40.370Z,2.22
2023-11-18T23:01:12.352Z,2.30
2023-11-18T23:06:10.671Z,2.47
2023-11-18T23:08:37.828Z,2.47
2023-11-18T23:11:05.362Z,2.53
2023-11-18T23:13:33.257Z,2.13
2023-11-18T23:16:01.803Z,2.42
2023-11-18T23:18:29.908Z,2.20
2023-11-18T23:20:58.821Z,2.00
2023-11-18T23:23:25.910Z,2.15
2023-11-18T23:25:52.790Z,2.00
2023-11-18T23:28:19.940Z,2.05
2023-11-18T23:30:46.858Z,2.08
2023-11-18T23:33:13.661Z,2.00
2023-11-18T23:35:41.587Z,1.75
2023-11-18T23:38:08.832Z,1.92
2023-11-18T23:40:36.117Z,1.67
2023-11-18T23:43:03.184Z,2.00
2023-11-18T23:45:32.029Z,2.20
2023-11-18T23:47:59.098Z,1.70
2023-11-18T23:50:28.438Z,1.90
2023-11-18T23:52:55.740Z,1.70
2023-11-18T23:55:25.337Z,2.38
2023-11-18T23:57:52.590Z,2.22
